Greenacres, Oregon
Current Conditions -  °F | °C
As of 3:55 PM on Friday 28 Nov 2014 (Local Time) from KOTH Reporting Station
Overcast Overcast  
Wind Chill: 59°   Ceiling: 1300
Heat Index: 59°   Visibility: 10mi
Dew Point: 57°   Wind: 15mph
Humidity: 94%   Direction: 220°SW
Pressure: 29.66"   Gusts: 20mph
Location:  43.6987°N, 123.85°W
Report Text: KOTH 282355Z 22013G17KT 190V250 10SM OVC013 15/14 A2966 RMK AO1 60009 10160 20130 401600120 57007
Loading
Personal Weather Stations






























Interactive Weather Map New forecast layout! Learn more

10-Day Weather Forecast

Advertisements
Track Severe Weather on mobile